sensor_id;sensor_type;location;lat;lon;timestamp;P1;durP1;ratioP1;P2;durP2;ratioP2
30048;SDS011;16879;50.852;15.602;2022-11-25T00:01:16;42.95;;;19.75;;
30048;SDS011;16879;50.852;15.602;2022-11-25T00:03:48;48.00;;;19.20;;
30048;SDS011;16879;50.852;15.602;2022-11-25T00:06:16;36.53;;;18.15;;
30048;SDS011;16879;50.852;15.602;2022-11-25T00:08:45;44.30;;;18.83;;
30048;SDS011;16879;50.852;15.602;2022-11-25T00:11:14;40.38;;;17.70;;
30048;SDS011;16879;50.852;15.602;2022-11-25T00:13:41;40.65;;;16.88;;
30048;SDS011;16879;50.852;15.602;2022-11-25T00:16:09;47.83;;;18.75;;
30048;SDS011;16879;50.852;15.602;2022-11-25T00:18:38;42.83;;;18.58;;
30048;SDS011;16879;50.852;15.602;2022-11-25T00:21:08;41.30;;;16.88;;
30048;SDS011;16879;50.852;15.602;2022-11-25T00:23:36;34.05;;;16.20;;
30048;SDS011;16879;50.852;15.602;2022-11-25T00:26:07;32.83;;;14.35;;
30048;SDS011;16879;50.852;15.602;2022-11-25T00:28:35;25.40;;;12.65;;
30048;SDS011;16879;50.852;15.602;2022-11-25T00:31:12;23.40;;;11.93;;
30048;SDS011;16879;50.852;15.602;2022-11-25T00:33:44;24.52;;;11.55;;
30048;SDS011;16879;50.852;15.602;2022-11-25T00:36:21;21.40;;;10.18;;
30048;SDS011;16879;50.852;15.602;2022-11-25T00:39:02;29.75;;;12.63;;
30048;SDS011;16879;50.852;15.602;2022-11-25T00:41:35;30.70;;;15.25;;
30048;SDS011;16879;50.852;15.602;2022-11-25T00:44:21;19.38;;;10.15;;
30048;SDS011;16879;50.852;15.602;2022-11-25T00:47:00;12.23;;;6.65;;
30048;SDS011;16879;50.852;15.602;2022-11-25T00:49:46;9.10;;;5.18;;
30048;SDS011;16879;50.852;15.602;2022-11-25T00:52:15;13.02;;;6.30;;
30048;SDS011;16879;50.852;15.602;2022-11-25T00:54:42;15.80;;;8.85;;
30048;SDS011;16879;50.852;15.602;2022-11-25T00:57:09;18.92;;;7.18;;
30048;SDS011;16879;50.852;15.602;2022-11-25T00:59:35;13.88;;;6.95;;
30048;SDS011;16879;50.852;15.602;2022-11-25T01:02:02;15.88;;;7.13;;
30048;SDS011;16879;50.852;15.602;2022-11-25T01:04:30;15.77;;;7.22;;
30048;SDS011;16879;50.852;15.602;2022-11-25T01:06:56;11.55;;;5.88;;
30048;SDS011;16879;50.852;15.602;2022-11-25T01:09:25;16.38;;;7.22;;
30048;SDS011;16879;50.852;15.602;2022-11-25T01:11:54;17.65;;;7.38;;
30048;SDS011;16879;50.852;15.602;2022-11-25T01:14:20;17.25;;;8.13;;
30048;SDS011;16879;50.852;15.602;2022-11-25T01:16:48;21.85;;;11.73;;
30048;SDS011;16879;50.852;15.602;2022-11-25T01:19:16;15.52;;;8.93;;
30048;SDS011;16879;50.852;15.602;2022-11-25T01:21:42;21.60;;;8.43;;
30048;SDS011;16879;50.852;15.602;2022-11-25T01:24:09;13.52;;;7.82;;
30048;SDS011;16879;50.852;15.602;2022-11-25T01:26:36;19.05;;;9.77;;
30048;SDS011;16879;50.852;15.602;2022-11-25T01:29:04;13.73;;;6.30;;
30048;SDS011;16879;50.852;15.602;2022-11-25T01:31:35;10.68;;;5.15;;
30048;SDS011;16879;50.852;15.602;2022-11-25T01:34:06;9.50;;;4.90;;
30048;SDS011;16879;50.852;15.602;2022-11-25T01:36:36;6.80;;;4.68;;
30048;SDS011;16879;50.852;15.602;2022-11-25T01:39:03;7.65;;;4.85;;
30048;SDS011;16879;50.852;15.602;2022-11-25T01:41:30;5.55;;;3.85;;
30048;SDS011;16879;50.852;15.602;2022-11-25T01:44:01;6.45;;;4.15;;
30048;SDS011;16879;50.852;15.602;2022-11-25T01:46:29;6.90;;;3.70;;
30048;SDS011;16879;50.852;15.602;2022-11-25T01:49:00;8.98;;;4.43;;
30048;SDS011;16879;50.852;15.602;2022-11-25T01:51:38;6.47;;;4.22;;
30048;SDS011;16879;50.852;15.602;2022-11-25T01:54:05;10.75;;;5.20;;
30048;SDS011;16879;50.852;15.602;2022-11-25T01:56:40;10.20;;;6.82;;
30048;SDS011;16879;50.852;15.602;2022-11-25T01:59:07;10.25;;;5.35;;
30048;SDS011;16879;50.852;15.602;2022-11-25T02:01:34;8.85;;;5.80;;
30048;SDS011;16879;50.852;15.602;2022-11-25T02:04:00;9.80;;;4.70;;
30048;SDS011;16879;50.852;15.602;2022-11-25T02:06:28;8.15;;;4.10;;
30048;SDS011;16879;50.852;15.602;2022-11-25T02:09:03;7.75;;;5.43;;
30048;SDS011;16879;50.852;15.602;2022-11-25T02:11:29;7.72;;;4.22;;
30048;SDS011;16879;50.852;15.602;2022-11-25T02:13:58;5.60;;;4.00;;
30048;SDS011;16879;50.852;15.602;2022-11-25T02:16:25;6.57;;;4.00;;
30048;SDS011;16879;50.852;15.602;2022-11-25T02:18:51;7.32;;;3.95;;
30048;SDS011;16879;50.852;15.602;2022-11-25T02:21:23;9.27;;;3.67;;
30048;SDS011;16879;50.852;15.602;2022-11-25T02:26:24;8.27;;;4.15;;
30048;SDS011;16879;50.852;15.602;2022-11-25T02:28:51;6.60;;;4.93;;
30048;SDS011;16879;50.852;15.602;2022-11-25T02:31:21;6.68;;;3.80;;
30048;SDS011;16879;50.852;15.602;2022-11-25T02:33:47;9.43;;;4.00;;
30048;SDS011;16879;50.852;15.602;2022-11-25T02:36:18;4.45;;;3.22;;
30048;SDS011;16879;50.852;15.602;2022-11-25T02:38:46;5.75;;;3.35;;
30048;SDS011;16879;50.852;15.602;2022-11-25T02:43:45;5.95;;;3.55;;
30048;SDS011;16879;50.852;15.602;2022-11-25T02:46:12;6.70;;;2.67;;
30048;SDS011;16879;50.852;15.602;2022-11-25T02:48:40;3.78;;;2.75;;
30048;SDS011;16879;50.852;15.602;2022-11-25T02:51:08;3.95;;;2.78;;
30048;SDS011;16879;50.852;15.602;2022-11-25T02:53:35;4.80;;;3.15;;
30048;SDS011;16879;50.852;15.602;2022-11-25T02:56:01;6.60;;;3.45;;
30048;SDS011;16879;50.852;15.602;2022-11-25T02:58:27;6.68;;;3.90;;
30048;SDS011;16879;50.852;15.602;2022-11-25T03:00:54;4.88;;;3.45;;
30048;SDS011;16879;50.852;15.602;2022-11-25T03:03:21;7.70;;;3.85;;
30048;SDS011;16879;50.852;15.602;2022-11-25T03:05:48;7.60;;;3.67;;
30048;SDS011;16879;50.852;15.602;2022-11-25T03:08:14;5.20;;;4.05;;
30048;SDS011;16879;50.852;15.602;2022-11-25T03:10:41;7.80;;;4.18;;
30048;SDS011;16879;50.852;15.602;2022-11-25T03:13:08;5.47;;;4.47;;
30048;SDS011;16879;50.852;15.602;2022-11-25T03:15:35;4.25;;;3.80;;
30048;SDS011;16879;50.852;15.602;2022-11-25T03:18:02;7.25;;;3.10;;
30048;SDS011;16879;50.852;15.602;2022-11-25T03:20:29;4.50;;;2.88;;
30048;SDS011;16879;50.852;15.602;2022-11-25T03:22:55;4.30;;;2.72;;
30048;SDS011;16879;50.852;15.602;2022-11-25T03:25:22;6.25;;;2.67;;
30048;SDS011;16879;50.852;15.602;2022-11-25T03:27:48;3.38;;;2.53;;
30048;SDS011;16879;50.852;15.602;2022-11-25T03:30:16;3.55;;;2.50;;
30048;SDS011;16879;50.852;15.602;2022-11-25T03:32:44;33.97;;;20.60;;
30048;SDS011;16879;50.852;15.602;2022-11-25T03:35:11;23.30;;;14.68;;
30048;SDS011;16879;50.852;15.602;2022-11-25T03:37:38;32.17;;;16.85;;
30048;SDS011;16879;50.852;15.602;2022-11-25T03:40:05;36.00;;;21.40;;
30048;SDS011;16879;50.852;15.602;2022-11-25T03:42:33;36.53;;;21.95;;
30048;SDS011;16879;50.852;15.602;2022-11-25T03:44:59;31.75;;;19.92;;
30048;SDS011;16879;50.852;15.602;2022-11-25T03:47:25;25.77;;;16.58;;
30048;SDS011;16879;50.852;15.602;2022-11-25T03:49:52;43.30;;;25.80;;
30048;SDS011;16879;50.852;15.602;2022-11-25T03:52:18;39.65;;;23.70;;
30048;SDS011;16879;50.852;15.602;2022-11-25T03:54:47;36.88;;;21.73;;
30048;SDS011;16879;50.852;15.602;2022-11-25T03:57:14;34.35;;;20.92;;
30048;SDS011;16879;50.852;15.602;2022-11-25T03:59:40;44.80;;;25.45;;
30048;SDS011;16879;50.852;15.602;2022-11-25T04:02:07;12.65;;;7.97;;
30048;SDS011;16879;50.852;15.602;2022-11-25T04:04:33;15.48;;;8.13;;
30048;SDS011;16879;50.852;15.602;2022-11-25T04:06:59;16.73;;;10.75;;
30048;SDS011;16879;50.852;15.602;2022-11-25T04:09:26;13.55;;;8.93;;
30048;SDS011;16879;50.852;15.602;2022-11-25T04:11:53;10.50;;;7.78;;
30048;SDS011;16879;50.852;15.602;2022-11-25T04:14:38;12.85;;;7.53;;
30048;SDS011;16879;50.852;15.602;2022-11-25T04:17:04;10.38;;;5.68;;
30048;SDS011;16879;50.852;15.602;2022-11-25T04:19:31;6.22;;;4.22;;
30048;SDS011;16879;50.852;15.602;2022-11-25T04:21:58;10.35;;;6.93;;
30048;SDS011;16879;50.852;15.602;2022-11-25T04:24:25;9.18;;;6.35;;
30048;SDS011;16879;50.852;15.602;2022-11-25T04:26:52;6.85;;;4.38;;
30048;SDS011;16879;50.852;15.602;2022-11-25T04:29:19;13.60;;;8.50;;
30048;SDS011;16879;50.852;15.602;2022-11-25T04:31:46;9.32;;;5.70;;
30048;SDS011;16879;50.852;15.602;2022-11-25T04:34:13;6.20;;;4.18;;
30048;SDS011;16879;50.852;15.602;2022-11-25T04:36:39;7.72;;;4.65;;
30048;SDS011;16879;50.852;15.602;2022-11-25T04:39:06;5.97;;;4.18;;
30048;SDS011;16879;50.852;15.602;2022-11-25T04:41:32;9.65;;;4.55;;
30048;SDS011;16879;50.852;15.602;2022-11-25T04:43:59;6.30;;;4.05;;
30048;SDS011;16879;50.852;15.602;2022-11-25T04:46:27;5.05;;;3.78;;
30048;SDS011;16879;50.852;15.602;2022-11-25T04:48:55;5.70;;;4.43;;
30048;SDS011;16879;50.852;15.602;2022-11-25T04:51:21;13.30;;;6.90;;
30048;SDS011;16879;50.852;15.602;2022-11-25T04:53:50;20.40;;;12.35;;
30048;SDS011;16879;50.852;15.602;2022-11-25T04:56:17;31.60;;;19.85;;
30048;SDS011;16879;50.852;15.602;2022-11-25T04:58:44;31.73;;;18.08;;
30048;SDS011;16879;50.852;15.602;2022-11-25T05:01:29;37.90;;;21.08;;
30048;SDS011;16879;50.852;15.602;2022-11-25T05:03:56;39.20;;;24.50;;
30048;SDS011;16879;50.852;15.602;2022-11-25T05:06:22;81.30;;;43.47;;
30048;SDS011;16879;50.852;15.602;2022-11-25T05:08:48;67.63;;;39.28;;
30048;SDS011;16879;50.852;15.602;2022-11-25T05:11:15;74.60;;;40.50;;
30048;SDS011;16879;50.852;15.602;2022-11-25T05:13:42;71.30;;;39.45;;
30048;SDS011;16879;50.852;15.602;2022-11-25T05:16:09;55.58;;;34.25;;
30048;SDS011;16879;50.852;15.602;2022-11-25T05:18:35;59.85;;;35.25;;
30048;SDS011;16879;50.852;15.602;2022-11-25T05:21:02;55.55;;;32.70;;
30048;SDS011;16879;50.852;15.602;2022-11-25T05:23:29;65.28;;;34.47;;
30048;SDS011;16879;50.852;15.602;2022-11-25T05:25:59;59.75;;;33.83;;
30048;SDS011;16879;50.852;15.602;2022-11-25T05:28:27;49.38;;;29.63;;
30048;SDS011;16879;50.852;15.602;2022-11-25T05:30:53;50.63;;;32.00;;
30048;SDS011;16879;50.852;15.602;2022-11-25T05:33:20;56.42;;;32.22;;
30048;SDS011;16879;50.852;15.602;2022-11-25T05:35:56;71.07;;;36.97;;
30048;SDS011;16879;50.852;15.602;2022-11-25T05:38:24;83.22;;;37.53;;
30048;SDS011;16879;50.852;15.602;2022-11-25T05:40:51;78.97;;;40.00;;
30048;SDS011;16879;50.852;15.602;2022-11-25T05:43:19;69.40;;;36.22;;
30048;SDS011;16879;50.852;15.602;2022-11-25T05:45:45;86.82;;;47.85;;
30048;SDS011;16879;50.852;15.602;2022-11-25T05:48:12;61.67;;;36.28;;
30048;SDS011;16879;50.852;15.602;2022-11-25T05:50:38;76.35;;;40.60;;
30048;SDS011;16879;50.852;15.602;2022-11-25T05:53:05;84.95;;;44.00;;
30048;SDS011;16879;50.852;15.602;2022-11-25T05:55:31;68.32;;;39.95;;
30048;SDS011;16879;50.852;15.602;2022-11-25T05:57:58;72.05;;;42.83;;
30048;SDS011;16879;50.852;15.602;2022-11-25T06:00:25;71.00;;;39.53;;
30048;SDS011;16879;50.852;15.602;2022-11-25T06:02:52;78.07;;;43.65;;
30048;SDS011;16879;50.852;15.602;2022-11-25T06:05:18;78.47;;;43.28;;
30048;SDS011;16879;50.852;15.602;2022-11-25T06:07:45;69.55;;;39.08;;
30048;SDS011;16879;50.852;15.602;2022-11-25T06:10:11;76.75;;;39.28;;
30048;SDS011;16879;50.852;15.602;2022-11-25T06:12:38;96.32;;;47.95;;
30048;SDS011;16879;50.852;15.602;2022-11-25T06:15:05;101.95;;;46.78;;
30048;SDS011;16879;50.852;15.602;2022-11-25T06:17:32;100.75;;;44.28;;
30048;SDS011;16879;50.852;15.602;2022-11-25T06:19:59;81.63;;;40.25;;
30048;SDS011;16879;50.852;15.602;2022-11-25T06:22:30;82.80;;;42.88;;
30048;SDS011;16879;50.852;15.602;2022-11-25T06:25:01;79.85;;;43.13;;
30048;SDS011;16879;50.852;15.602;2022-11-25T06:27:28;96.22;;;47.35;;
30048;SDS011;16879;50.852;15.602;2022-11-25T06:29:56;87.35;;;46.67;;
30048;SDS011;16879;50.852;15.602;2022-11-25T06:32:23;79.05;;;43.90;;
30048;SDS011;16879;50.852;15.602;2022-11-25T06:34:50;75.40;;;44.03;;
30048;SDS011;16879;50.852;15.602;2022-11-25T06:37:20;92.93;;;49.42;;
30048;SDS011;16879;50.852;15.602;2022-11-25T06:39:47;69.90;;;41.03;;
30048;SDS011;16879;50.852;15.602;2022-11-25T06:42:15;80.30;;;41.33;;
30048;SDS011;16879;50.852;15.602;2022-11-25T06:44:41;90.53;;;43.85;;
30048;SDS011;16879;50.852;15.602;2022-11-25T06:47:08;78.93;;;38.65;;
30048;SDS011;16879;50.852;15.602;2022-11-25T06:49:35;69.25;;;37.00;;
30048;SDS011;16879;50.852;15.602;2022-11-25T06:52:01;65.03;;;38.13;;
30048;SDS011;16879;50.852;15.602;2022-11-25T06:54:28;65.60;;;32.47;;
30048;SDS011;16879;50.852;15.602;2022-11-25T06:56:54;61.72;;;29.42;;
30048;SDS011;16879;50.852;15.602;2022-11-25T06:59:21;60.92;;;32.47;;
30048;SDS011;16879;50.852;15.602;2022-11-25T07:01:47;57.85;;;32.22;;
30048;SDS011;16879;50.852;15.602;2022-11-25T07:04:14;75.05;;;41.15;;
30048;SDS011;16879;50.852;15.602;2022-11-25T07:06:40;63.28;;;36.10;;
30048;SDS011;16879;50.852;15.602;2022-11-25T07:09:07;66.75;;;36.88;;
30048;SDS011;16879;50.852;15.602;2022-11-25T07:11:35;61.95;;;35.00;;
30048;SDS011;16879;50.852;15.602;2022-11-25T07:14:03;53.17;;;29.98;;
30048;SDS011;16879;50.852;15.602;2022-11-25T07:16:30;62.50;;;33.60;;
30048;SDS011;16879;50.852;15.602;2022-11-25T07:18:58;70.10;;;41.92;;
30048;SDS011;16879;50.852;15.602;2022-11-25T07:21:29;74.80;;;43.80;;
30048;SDS011;16879;50.852;15.602;2022-11-25T07:23:58;65.35;;;40.10;;
30048;SDS011;16879;50.852;15.602;2022-11-25T07:26:27;76.57;;;46.47;;
30048;SDS011;16879;50.852;15.602;2022-11-25T07:28:57;62.45;;;37.60;;
30048;SDS011;16879;50.852;15.602;2022-11-25T07:31:31;56.13;;;35.88;;
30048;SDS011;16879;50.852;15.602;2022-11-25T07:33:58;55.97;;;32.42;;
30048;SDS011;16879;50.852;15.602;2022-11-25T07:36:27;67.10;;;37.35;;
30048;SDS011;16879;50.852;15.602;2022-11-25T07:38:54;61.65;;;33.55;;
30048;SDS011;16879;50.852;15.602;2022-11-25T07:41:22;63.08;;;33.60;;
30048;SDS011;16879;50.852;15.602;2022-11-25T07:43:51;72.30;;;41.55;;
30048;SDS011;16879;50.852;15.602;2022-11-25T07:46:23;83.50;;;47.17;;
30048;SDS011;16879;50.852;15.602;2022-11-25T07:48:51;76.40;;;39.67;;
30048;SDS011;16879;50.852;15.602;2022-11-25T07:53:45;63.55;;;39.35;;
30048;SDS011;16879;50.852;15.602;2022-11-25T07:56:12;93.40;;;52.50;;
30048;SDS011;16879;50.852;15.602;2022-11-25T07:58:40;63.53;;;40.22;;
30048;SDS011;16879;50.852;15.602;2022-11-25T08:01:09;74.70;;;41.25;;
30048;SDS011;16879;50.852;15.602;2022-11-25T08:03:36;60.92;;;37.95;;
30048;SDS011;16879;50.852;15.602;2022-11-25T08:06:04;76.90;;;44.38;;
30048;SDS011;16879;50.852;15.602;2022-11-25T08:08:31;73.75;;;43.65;;
30048;SDS011;16879;50.852;15.602;2022-11-25T08:10:58;100.03;;;59.03;;
30048;SDS011;16879;50.852;15.602;2022-11-25T08:13:25;92.95;;;54.97;;
30048;SDS011;16879;50.852;15.602;2022-11-25T08:15:51;105.93;;;60.38;;
30048;SDS011;16879;50.852;15.602;2022-11-25T08:18:18;109.35;;;62.90;;
30048;SDS011;16879;50.852;15.602;2022-11-25T08:20:45;98.35;;;54.75;;
30048;SDS011;16879;50.852;15.602;2022-11-25T08:23:11;84.55;;;47.28;;
30048;SDS011;16879;50.852;15.602;2022-11-25T08:25:39;138.38;;;75.70;;
30048;SDS011;16879;50.852;15.602;2022-11-25T08:28:06;104.57;;;55.47;;
30048;SDS011;16879;50.852;15.602;2022-11-25T08:30:32;113.68;;;65.78;;
30048;SDS011;16879;50.852;15.602;2022-11-25T08:32:59;78.22;;;45.80;;
30048;SDS011;16879;50.852;15.602;2022-11-25T08:35:26;79.88;;;47.55;;
30048;SDS011;16879;50.852;15.602;2022-11-25T08:37:52;78.70;;;45.72;;
30048;SDS011;16879;50.852;15.602;2022-11-25T08:40:19;77.57;;;43.65;;
30048;SDS011;16879;50.852;15.602;2022-11-25T08:42:46;79.43;;;46.45;;
30048;SDS011;16879;50.852;15.602;2022-11-25T08:45:13;71.40;;;40.85;;
30048;SDS011;16879;50.852;15.602;2022-11-25T08:47:39;72.03;;;41.85;;
30048;SDS011;16879;50.852;15.602;2022-11-25T08:50:07;105.32;;;63.05;;
30048;SDS011;16879;50.852;15.602;2022-11-25T08:52:34;86.93;;;50.92;;
30048;SDS011;16879;50.852;15.602;2022-11-25T08:55:00;102.32;;;62.40;;
30048;SDS011;16879;50.852;15.602;2022-11-25T08:57:28;91.63;;;56.05;;
30048;SDS011;16879;50.852;15.602;2022-11-25T08:59:55;79.35;;;45.20;;
30048;SDS011;16879;50.852;15.602;2022-11-25T09:02:21;78.85;;;49.50;;
30048;SDS011;16879;50.852;15.602;2022-11-25T09:04:47;73.55;;;45.63;;
30048;SDS011;16879;50.852;15.602;2022-11-25T09:07:14;71.97;;;44.25;;
30048;SDS011;16879;50.852;15.602;2022-11-25T09:09:40;66.70;;;42.40;;
30048;SDS011;16879;50.852;15.602;2022-11-25T09:12:08;64.88;;;41.13;;
30048;SDS011;16879;50.852;15.602;2022-11-25T09:14:35;61.95;;;39.58;;
30048;SDS011;16879;50.852;15.602;2022-11-25T09:17:06;53.80;;;33.28;;
30048;SDS011;16879;50.852;15.602;2022-11-25T09:19:33;55.35;;;34.58;;
30048;SDS011;16879;50.852;15.602;2022-11-25T09:22:00;62.83;;;40.45;;
30048;SDS011;16879;50.852;15.602;2022-11-25T09:24:26;65.47;;;39.72;;
30048;SDS011;16879;50.852;15.602;2022-11-25T09:26:52;62.92;;;42.80;;
30048;SDS011;16879;50.852;15.602;2022-11-25T09:29:19;67.00;;;41.72;;
30048;SDS011;16879;50.852;15.602;2022-11-25T09:31:45;55.53;;;34.30;;
30048;SDS011;16879;50.852;15.602;2022-11-25T09:34:11;56.38;;;37.00;;
30048;SDS011;16879;50.852;15.602;2022-11-25T09:36:38;50.70;;;32.50;;
30048;SDS011;16879;50.852;15.602;2022-11-25T09:39:04;49.15;;;31.85;;
30048;SDS011;16879;50.852;15.602;2022-11-25T09:41:42;55.75;;;34.15;;
30048;SDS011;16879;50.852;15.602;2022-11-25T09:44:44;52.25;;;32.53;;
30048;SDS011;16879;50.852;15.602;2022-11-25T09:55:15;46.42;;;31.92;;
30048;SDS011;16879;50.852;15.602;2022-11-25T09:57:57;44.08;;;29.38;;
30048;SDS011;16879;50.852;15.602;2022-11-25T10:00:29;42.70;;;28.65;;
30048;SDS011;16879;50.852;15.602;2022-11-25T10:05:36;47.40;;;29.20;;
30048;SDS011;16879;50.852;15.602;2022-11-25T10:11:21;45.55;;;29.25;;
30048;SDS011;16879;50.852;15.602;2022-11-25T10:14:20;47.25;;;31.35;;
30048;SDS011;16879;50.852;15.602;2022-11-25T10:19:42;47.33;;;30.73;;
30048;SDS011;16879;50.852;15.602;2022-11-25T10:22:27;63.85;;;39.33;;
30048;SDS011;16879;50.852;15.602;2022-11-25T10:24:57;49.25;;;33.47;;
30048;SDS011;16879;50.852;15.602;2022-11-25T10:27:26;46.40;;;31.92;;
30048;SDS011;16879;50.852;15.602;2022-11-25T10:29:57;45.25;;;28.02;;
30048;SDS011;16879;50.852;15.602;2022-11-25T10:32:25;40.92;;;29.20;;
30048;SDS011;16879;50.852;15.602;2022-11-25T10:34:56;43.17;;;31.73;;
30048;SDS011;16879;50.852;15.602;2022-11-25T10:37:28;43.15;;;30.17;;
30048;SDS011;16879;50.852;15.602;2022-11-25T10:39:55;49.65;;;32.05;;
30048;SDS011;16879;50.852;15.602;2022-11-25T10:42:23;44.53;;;29.88;;
30048;SDS011;16879;50.852;15.602;2022-11-25T10:44:51;38.22;;;26.40;;
30048;SDS011;16879;50.852;15.602;2022-11-25T10:47:27;15.02;;;10.15;;
30048;SDS011;16879;50.852;15.602;2022-11-25T10:52:32;9.57;;;6.07;;
30048;SDS011;16879;50.852;15.602;2022-11-25T10:55:08;8.23;;;5.50;;
30048;SDS011;16879;50.852;15.602;2022-11-25T10:57:35;6.53;;;3.88;;
30048;SDS011;16879;50.852;15.602;2022-11-25T11:00:03;12.02;;;3.75;;
30048;SDS011;16879;50.852;15.602;2022-11-25T11:02:35;11.75;;;3.72;;
30048;SDS011;16879;50.852;15.602;2022-11-25T11:05:15;5.45;;;2.90;;
30048;SDS011;16879;50.852;15.602;2022-11-25T11:07:43;3.78;;;2.80;;
30048;SDS011;16879;50.852;15.602;2022-11-25T11:10:23;6.20;;;3.85;;
30048;SDS011;16879;50.852;15.602;2022-11-25T11:13:01;7.22;;;4.65;;
30048;SDS011;16879;50.852;15.602;2022-11-25T11:15:29;4.70;;;2.90;;
30048;SDS011;16879;50.852;15.602;2022-11-25T11:17:56;3.78;;;2.25;;
30048;SDS011;16879;50.852;15.602;2022-11-25T11:20:27;2.50;;;2.10;;
30048;SDS011;16879;50.852;15.602;2022-11-25T11:23:01;9.48;;;3.72;;
30048;SDS011;16879;50.852;15.602;2022-11-25T11:25:32;3.70;;;2.17;;
30048;SDS011;16879;50.852;15.602;2022-11-25T11:28:00;2.53;;;1.88;;
30048;SDS011;16879;50.852;15.602;2022-11-25T11:30:29;4.43;;;2.70;;
30048;SDS011;16879;50.852;15.602;2022-11-25T11:33:00;3.88;;;2.20;;
30048;SDS011;16879;50.852;15.602;2022-11-25T11:38:37;4.20;;;2.17;;
30048;SDS011;16879;50.852;15.602;2022-11-25T11:41:11;3.75;;;2.13;;
30048;SDS011;16879;50.852;15.602;2022-11-25T11:49:24;4.18;;;2.90;;
30048;SDS011;16879;50.852;15.602;2022-11-25T11:54:39;8.30;;;4.90;;
30048;SDS011;16879;50.852;15.602;2022-11-25T12:00:03;3.20;;;1.80;;
30048;SDS011;16879;50.852;15.602;2022-11-25T12:05:14;7.05;;;4.05;;
30048;SDS011;16879;50.852;15.602;2022-11-25T12:10:29;9.43;;;3.55;;
30048;SDS011;16879;50.852;15.602;2022-11-25T12:18:09;6.07;;;2.17;;
30048;SDS011;16879;50.852;15.602;2022-11-25T12:20:45;7.05;;;2.72;;
30048;SDS011;16879;50.852;15.602;2022-11-25T12:23:14;5.80;;;3.50;;
30048;SDS011;16879;50.852;15.602;2022-11-25T12:25:44;4.53;;;3.20;;
30048;SDS011;16879;50.852;15.602;2022-11-25T12:28:24;5.30;;;3.17;;
30048;SDS011;16879;50.852;15.602;2022-11-25T12:31:14;5.13;;;3.20;;
30048;SDS011;16879;50.852;15.602;2022-11-25T12:36:32;3.47;;;2.25;;
30048;SDS011;16879;50.852;15.602;2022-11-25T12:39:07;4.25;;;3.58;;
30048;SDS011;16879;50.852;15.602;2022-11-25T12:49:05;6.85;;;3.65;;
30048;SDS011;16879;50.852;15.602;2022-11-25T12:56:37;6.57;;;3.78;;
30048;SDS011;16879;50.852;15.602;2022-11-25T12:59:23;6.13;;;4.07;;
30048;SDS011;16879;50.852;15.602;2022-11-25T13:07:23;6.63;;;3.20;;
30048;SDS011;16879;50.852;15.602;2022-11-25T13:10:13;9.32;;;3.55;;
30048;SDS011;16879;50.852;15.602;2022-11-25T13:15:25;8.48;;;4.75;;
30048;SDS011;16879;50.852;15.602;2022-11-25T13:17:55;6.97;;;4.53;;
30048;SDS011;16879;50.852;15.602;2022-11-25T13:25:47;9.77;;;5.70;;
30048;SDS011;16879;50.852;15.602;2022-11-25T13:30:46;11.23;;;6.50;;
30048;SDS011;16879;50.852;15.602;2022-11-25T13:41:20;14.35;;;7.93;;
30048;SDS011;16879;50.852;15.602;2022-11-25T13:48:57;12.70;;;6.80;;
30048;SDS011;16879;50.852;15.602;2022-11-25T13:51:24;9.23;;;5.93;;
30048;SDS011;16879;50.852;15.602;2022-11-25T13:53:58;15.32;;;4.63;;
30048;SDS011;16879;50.852;15.602;2022-11-25T13:56:29;14.43;;;7.03;;
30048;SDS011;16879;50.852;15.602;2022-11-25T14:01:39;27.10;;;14.23;;
30048;SDS011;16879;50.852;15.602;2022-11-25T14:04:06;19.45;;;8.95;;
30048;SDS011;16879;50.852;15.602;2022-11-25T14:12:04;17.42;;;9.40;;
30048;SDS011;16879;50.852;15.602;2022-11-25T14:31:05;13.35;;;8.27;;
30048;SDS011;16879;50.852;15.602;2022-11-25T14:33:37;12.40;;;7.43;;
30048;SDS011;16879;50.852;15.602;2022-11-25T14:36:33;16.52;;;9.55;;
30048;SDS011;16879;50.852;15.602;2022-11-25T14:39:04;16.70;;;11.80;;
30048;SDS011;16879;50.852;15.602;2022-11-25T14:41:31;32.67;;;20.48;;
30048;SDS011;16879;50.852;15.602;2022-11-25T14:44:02;61.05;;;36.85;;
30048;SDS011;16879;50.852;15.602;2022-11-25T14:46:39;83.68;;;48.85;;
30048;SDS011;16879;50.852;15.602;2022-11-25T14:49:19;42.70;;;25.60;;
30048;SDS011;16879;50.852;15.602;2022-11-25T14:51:47;54.92;;;32.78;;
30048;SDS011;16879;50.852;15.602;2022-11-25T14:54:16;49.38;;;29.50;;
30048;SDS011;16879;50.852;15.602;2022-11-25T14:56:43;47.88;;;26.98;;
30048;SDS011;16879;50.852;15.602;2022-11-25T14:59:10;50.13;;;28.80;;
30048;SDS011;16879;50.852;15.602;2022-11-25T15:01:37;74.88;;;36.58;;
30048;SDS011;16879;50.852;15.602;2022-11-25T15:04:17;29.90;;;17.23;;
30048;SDS011;16879;50.852;15.602;2022-11-25T15:06:55;48.28;;;27.88;;
30048;SDS011;16879;50.852;15.602;2022-11-25T15:09:27;53.42;;;31.98;;
30048;SDS011;16879;50.852;15.602;2022-11-25T15:12:06;60.50;;;36.58;;
30048;SDS011;16879;50.852;15.602;2022-11-25T15:14:35;141.68;;;58.00;;
30048;SDS011;16879;50.852;15.602;2022-11-25T15:17:07;143.88;;;61.67;;
30048;SDS011;16879;50.852;15.602;2022-11-25T15:19:34;107.72;;;53.92;;
30048;SDS011;16879;50.852;15.602;2022-11-25T15:22:03;149.38;;;86.65;;
30048;SDS011;16879;50.852;15.602;2022-11-25T15:24:31;131.55;;;76.57;;
30048;SDS011;16879;50.852;15.602;2022-11-25T15:27:41;117.78;;;68.30;;
30048;SDS011;16879;50.852;15.602;2022-11-25T15:29:58;147.50;;;81.03;;
30048;SDS011;16879;50.852;15.602;2022-11-25T15:32:28;145.70;;;76.18;;
30048;SDS011;16879;50.852;15.602;2022-11-25T15:34:56;128.40;;;61.17;;
30048;SDS011;16879;50.852;15.602;2022-11-25T15:37:23;126.15;;;60.35;;
30048;SDS011;16879;50.852;15.602;2022-11-25T15:40:27;98.32;;;50.80;;
30048;SDS011;16879;50.852;15.602;2022-11-25T15:42:36;116.72;;;57.17;;
30048;SDS011;16879;50.852;15.602;2022-11-25T15:45:07;119.80;;;60.22;;
30048;SDS011;16879;50.852;15.602;2022-11-25T15:47:44;140.30;;;70.18;;
30048;SDS011;16879;50.852;15.602;2022-11-25T15:52:44;106.53;;;59.72;;
30048;SDS011;16879;50.852;15.602;2022-11-25T15:55:18;108.20;;;63.78;;
30048;SDS011;16879;50.852;15.602;2022-11-25T15:57:50;93.72;;;51.80;;
30048;SDS011;16879;50.852;15.602;2022-11-25T16:00:18;77.65;;;41.13;;
30048;SDS011;16879;50.852;15.602;2022-11-25T16:18:22;64.97;;;32.15;;
30048;SDS011;16879;50.852;15.602;2022-11-25T16:21:01;60.45;;;35.38;;
30048;SDS011;16879;50.852;15.602;2022-11-25T16:23:36;91.10;;;48.05;;
30048;SDS011;16879;50.852;15.602;2022-11-25T16:26:12;140.68;;;74.90;;
30048;SDS011;16879;50.852;15.602;2022-11-25T16:28:54;141.75;;;86.38;;
30048;SDS011;16879;50.852;15.602;2022-11-25T16:31:22;107.20;;;54.78;;
30048;SDS011;16879;50.852;15.602;2022-11-25T16:34:23;74.35;;;39.35;;
30048;SDS011;16879;50.852;15.602;2022-11-25T16:36:42;78.47;;;37.35;;
30048;SDS011;16879;50.852;15.602;2022-11-25T16:39:11;66.40;;;31.67;;
30048;SDS011;16879;50.852;15.602;2022-11-25T16:41:44;82.63;;;38.60;;
30048;SDS011;16879;50.852;15.602;2022-11-25T16:44:21;77.15;;;37.67;;
30048;SDS011;16879;50.852;15.602;2022-11-25T16:46:48;74.40;;;40.63;;
30048;SDS011;16879;50.852;15.602;2022-11-25T16:49:19;78.05;;;39.83;;